Time;durP1;ratioP1;P1;durP2;ratioP2;P2;SDS_P1;SDS_P2;PMS_P1;PMS_P2;Temp;Humidity;BMP_temperature;BMP_pressure;BME280_temperature;BME280_humidity;BME280_pressure;Samples;Min_cycle;Max_cycle;Signal;HPM_P1;HPM_P2
2023/10/29 00:00:08;;;;;;;16.42;9.82;;;7.90;99.90;;;;;;5114149;28;20076;-80
2023/10/29 00:02:33;;;;;;;15.10;9.10;;;7.90;99.90;;;;;;5114237;28;20020;-80
2023/10/29 00:04:59;;;;;;;15.05;8.73;;;7.90;99.90;;;;;;5108062;28;20039;-79
2023/10/29 00:07:25;;;;;;;14.02;8.52;;;7.90;99.90;;;;;;5111722;28;20015;-75
2023/10/29 00:09:50;;;;;;;16.48;9.07;;;7.90;99.90;;;;;;5112670;28;20027;-75
2023/10/29 00:12:16;;;;;;;16.00;8.60;;;7.90;99.90;;;;;;5105089;28;20012;-75
2023/10/29 00:14:42;;;;;;;12.73;9.00;;;7.80;99.90;;;;;;5112527;28;20028;-80
2023/10/29 00:17:07;;;;;;;13.07;7.85;;;7.80;99.90;;;;;;5112825;28;20018;-80
2023/10/29 00:19:33;;;;;;;15.18;8.63;;;7.70;99.90;;;;;;5114020;27;20020;-74
2023/10/29 00:21:59;;;;;;;15.13;9.18;;;7.70;99.90;;;;;;5113917;28;20032;-74
2023/10/29 00:24:24;;;;;;;12.18;9.20;;;7.70;99.90;;;;;;5112444;28;20127;-79
2023/10/29 00:26:50;;;;;;;12.23;8.30;;;7.60;99.90;;;;;;5113798;28;20102;-74
2023/10/29 00:29:16;;;;;;;14.50;8.65;;;7.60;99.90;;;;;;5113852;28;20095;-80
2023/10/29 00:31:41;;;;;;;13.55;7.97;;;7.60;99.90;;;;;;5113699;28;20055;-79
2023/10/29 00:34:07;;;;;;;15.85;9.00;;;7.60;99.90;;;;;;5113633;28;20019;-79
2023/10/29 00:36:33;;;;;;;12.27;8.00;;;7.50;99.90;;;;;;5111713;28;20022;-79
2023/10/29 00:38:58;;;;;;;13.07;7.53;;;7.40;99.90;;;;;;5104124;28;20028;-74
2023/10/29 00:41:26;;;;;;;11.52;8.00;;;7.40;99.90;;;;;;5113353;28;20024;-79
2023/10/29 00:43:51;;;;;;;14.45;8.13;;;7.40;99.90;;;;;;5113576;28;20023;-79
2023/10/29 00:46:17;;;;;;;14.13;8.10;;;7.40;99.90;;;;;;5111695;28;20023;-79
2023/10/29 00:48:44;;;;;;;14.98;7.45;;;7.40;99.90;;;;;;5112182;28;20035;-79
2023/10/29 00:51:10;;;;;;;13.57;8.07;;;7.30;99.90;;;;;;5113312;28;20016;-74
2023/10/29 00:53:36;;;;;;;13.60;9.13;;;7.30;99.90;;;;;;5113245;28;20023;-74
2023/10/29 00:56:04;;;;;;;14.25;8.07;;;7.20;99.90;;;;;;5145604;27;20108;-79
2023/10/29 00:58:30;;;;;;;18.48;8.13;;;7.20;99.90;;;;;;5112570;28;20073;-81
2023/10/29 01:00:55;;;;;;;13.95;8.07;;;7.20;99.90;;;;;;5099139;28;20456;-80
2023/10/29 01:03:22;;;;;;;14.88;8.00;;;7.20;99.90;;;;;;5110634;28;20022;-80
2023/10/29 01:05:48;;;;;;;10.23;7.85;;;7.20;99.90;;;;;;5109909;28;20058;-80
2023/10/29 01:08:15;;;;;;;13.35;7.57;;;7.20;99.90;;;;;;5103172;28;20063;-80
2023/10/29 01:10:41;;;;;;;12.32;7.57;;;7.20;99.90;;;;;;5108650;28;20103;-80
2023/10/29 01:13:07;;;;;;;12.57;8.48;;;7.20;99.90;;;;;;5111135;28;20447;-75
2023/10/29 01:15:33;;;;;;;16.75;7.95;;;7.20;99.90;;;;;;5110981;28;20103;-80
2023/10/29 01:17:59;;;;;;;16.35;8.10;;;7.10;99.90;;;;;;5112607;28;20047;-76
2023/10/29 01:20:24;;;;;;;13.68;8.95;;;7.10;99.90;;;;;;5111210;28;20094;-80
2023/10/29 01:22:50;;;;;;;20.23;9.68;;;7.10;99.90;;;;;;5103011;28;20484;-76
2023/10/29 01:25:17;;;;;;;19.15;10.45;;;7.10;99.90;;;;;;5111427;28;20031;-76
2023/10/29 01:27:44;;;;;;;14.82;9.32;;;7.10;99.90;;;;;;5111657;28;20028;-76
2023/10/29 01:30:11;;;;;;;15.27;8.98;;;7.00;99.90;;;;;;5112467;28;20073;-76
2023/10/29 01:32:38;;;;;;;15.20;8.93;;;7.10;99.90;;;;;;5103502;28;20423;-76
2023/10/29 01:35:04;;;;;;;15.18;8.82;;;7.00;99.90;;;;;;5111381;28;20077;-76
2023/10/29 01:37:30;;;;;;;13.13;8.10;;;7.00;99.90;;;;;;5111471;28;20057;-80
2023/10/29 01:39:56;;;;;;;11.95;8.20;;;7.10;99.90;;;;;;5111367;28;20418;-79
2023/10/29 01:42:22;;;;;;;11.50;8.10;;;7.00;99.90;;;;;;5111324;28;20016;-75
2023/10/29 01:44:48;;;;;;;14.32;8.70;;;7.10;99.90;;;;;;5111416;28;20096;-75
2023/10/29 01:47:13;;;;;;;13.02;8.75;;;7.10;99.90;;;;;;5111013;28;20457;-80
2023/10/29 01:49:39;;;;;;;15.38;9.10;;;7.00;99.90;;;;;;5112604;28;20016;-75
2023/10/29 01:52:05;;;;;;;16.35;8.93;;;7.10;99.90;;;;;;5094418;28;20051;-75
2023/10/29 01:54:31;;;;;;;13.35;8.85;;;7.10;99.90;;;;;;5111173;28;20019;-75
2023/10/29 01:56:56;;;;;;;18.40;9.32;;;7.10;99.90;;;;;;5113784;28;20034;-75
2023/10/29 01:59:22;;;;;;;33.58;15.52;;;7.00;99.90;;;;;;5116500;28;20099;-75
2023/10/29 02:01:50;;;;;;;31.00;14.40;;;7.00;99.90;;;;;;5116346;28;20107;-75
2023/10/29 02:04:16;;;;;;;23.15;13.70;;;7.00;99.90;;;;;;5101805;28;20032;-75
2023/10/29 02:06:41;;;;;;;26.95;14.13;;;7.00;99.90;;;;;;5115136;28;20022;-79
2023/10/29 02:09:08;;;;;;;25.40;14.23;;;7.00;99.90;;;;;;5116536;28;20049;-79
2023/10/29 02:11:38;;;;;;;21.67;11.93;;;7.00;99.90;;;;;;5116225;28;20495;-79
2023/10/29 02:14:04;;;;;;;17.80;10.02;;;7.00;99.90;;;;;;5116212;28;20016;-75
2023/10/29 02:16:30;;;;;;;17.63;11.43;;;7.00;99.90;;;;;;5115237;28;20122;-74
2023/10/29 02:18:56;;;;;;;23.50;11.05;;;6.90;99.90;;;;;;5114918;28;20463;-75
2023/10/29 02:21:23;;;;;;;21.08;10.60;;;6.90;99.90;;;;;;5115080;28;20015;-80
2023/10/29 02:23:49;;;;;;;21.08;10.63;;;6.90;99.90;;;;;;5116000;28;20026;-80
2023/10/29 02:26:15;;;;;;;21.63;11.57;;;6.90;99.90;;;;;;5116189;28;20024;-80
2023/10/29 02:28:41;;;;;;;24.80;12.07;;;6.80;99.90;;;;;;5116032;28;20487;-75
2023/10/29 02:31:07;;;;;;;21.92;11.88;;;6.80;99.90;;;;;;5115942;28;20452;-80
2023/10/29 02:33:32;;;;;;;23.20;11.57;;;6.70;99.90;;;;;;5116007;28;20027;-80
2023/10/29 02:35:58;;;;;;;18.65;10.80;;;6.60;99.90;;;;;;5114873;28;20069;-75
2023/10/29 02:38:24;;;;;;;22.15;11.48;;;6.60;99.90;;;;;;5116043;28;20096;-75
2023/10/29 02:40:49;;;;;;;28.40;13.68;;;6.50;99.90;;;;;;5113940;28;20204;-80
2023/10/29 02:43:16;;;;;;;31.30;14.35;;;6.50;99.90;;;;;;5116005;28;20454;-80
2023/10/29 02:45:41;;;;;;;36.58;14.13;;;6.50;99.90;;;;;;5145525;27;20681;-80
2023/10/29 02:48:07;;;;;;;34.85;13.82;;;6.40;99.90;;;;;;5115874;28;20024;-80
2023/10/29 02:50:35;;;;;;;28.55;14.30;;;6.40;99.90;;;;;;5115585;28;20020;-79
2023/10/29 02:53:01;;;;;;;26.63;14.20;;;6.30;99.90;;;;;;5115690;28;20012;-79
2023/10/29 02:55:26;;;;;;;15.32;9.30;;;6.30;99.90;;;;;;5115549;28;20012;-80
2023/10/29 02:57:52;;;;;;;17.17;9.50;;;6.30;99.90;;;;;;5115833;28;20020;-75
2023/10/29 03:00:18;;;;;;;16.88;10.63;;;6.30;99.90;;;;;;5115209;28;20029;-80
2023/10/29 03:02:44;;;;;;;14.35;9.05;;;6.20;99.90;;;;;;5115198;28;20024;-80
2023/10/29 03:05:11;;;;;;;14.65;9.02;;;6.20;99.90;;;;;;5114584;28;20055;-75
2023/10/29 03:07:37;;;;;;;13.43;8.35;;;6.20;99.90;;;;;;5114031;28;20027;-80
2023/10/29 03:10:04;;;;;;;14.65;8.70;;;6.20;99.90;;;;;;5113914;28;20053;-74
2023/10/29 03:12:30;;;;;;;15.02;8.07;;;6.20;99.90;;;;;;5115266;28;20023;-79
2023/10/29 03:14:56;;;;;;;15.65;9.68;;;6.20;99.90;;;;;;5113728;28;20023;-74
2023/10/29 03:17:22;;;;;;;21.60;10.88;;;6.20;99.90;;;;;;5115293;28;20027;-79
2023/10/29 03:19:48;;;;;;;19.35;10.35;;;6.20;99.90;;;;;;5114321;28;20030;-78
2023/10/29 03:22:13;;;;;;;19.77;12.10;;;6.20;99.90;;;;;;5115362;28;20027;-74
2023/10/29 03:24:39;;;;;;;18.73;11.32;;;6.20;99.90;;;;;;5109408;28;20053;-80
2023/10/29 03:27:05;;;;;;;27.25;14.13;;;6.20;99.90;;;;;;5114884;28;20029;-75
2023/10/29 03:29:31;;;;;;;48.00;19.02;;;6.20;99.90;;;;;;5105317;28;20020;-75
2023/10/29 03:31:56;;;;;;;36.45;17.40;;;6.10;99.90;;;;;;5114999;28;20027;-79
2023/10/29 03:34:22;;;;;;;24.63;12.85;;;6.10;99.90;;;;;;5105592;28;20015;-78
2023/10/29 03:36:48;;;;;;;31.80;15.80;;;6.10;99.90;;;;;;5114724;28;20012;-79
2023/10/29 03:39:13;;;;;;;31.33;16.98;;;6.20;99.90;;;;;;5114902;28;20023;-76
2023/10/29 03:41:39;;;;;;;27.48;14.35;;;6.20;99.90;;;;;;5113282;28;20048;-75
2023/10/29 03:44:06;;;;;;;23.90;13.20;;;6.20;99.90;;;;;;5114501;28;20038;-79
2023/10/29 03:46:32;;;;;;;28.65;12.20;;;6.10;99.90;;;;;;5113615;28;20051;-75
2023/10/29 03:48:57;;;;;;;25.42;13.80;;;6.20;99.90;;;;;;5114482;28;20058;-77
2023/10/29 03:51:28;;;;;;;26.42;13.48;;;6.20;99.90;;;;;;5113314;28;20019;-75
2023/10/29 03:53:56;;;;;;;26.52;14.77;;;6.30;99.90;;;;;;5101776;28;20023;-75
2023/10/29 03:56:22;;;;;;;29.77;15.32;;;6.30;99.90;;;;;;5113734;28;20490;-80
2023/10/29 03:58:48;;;;;;;23.52;13.43;;;6.30;99.90;;;;;;5113329;28;20098;-79
2023/10/29 04:01:14;;;;;;;21.65;12.27;;;6.30;99.90;;;;;;5114045;28;20107;-75
2023/10/29 04:03:41;;;;;;;24.13;11.55;;;6.40;99.90;;;;;;5114359;28;20047;-75
2023/10/29 04:06:11;;;;;;;17.58;10.85;;;6.40;99.90;;;;;;5112687;28;20027;-79
2023/10/29 04:08:38;;;;;;;19.95;11.35;;;6.50;99.90;;;;;;5113128;28;20019;-74
2023/10/29 04:11:04;;;;;;;21.50;11.98;;;6.50;99.90;;;;;;5112789;28;20026;-80
2023/10/29 04:13:31;;;;;;;19.77;11.88;;;6.50;99.90;;;;;;5114284;27;20037;-74
2023/10/29 04:15:57;;;;;;;19.65;11.52;;;6.60;99.90;;;;;;5113888;28;20028;-74
2023/10/29 04:18:27;;;;;;;18.10;11.40;;;6.60;99.90;;;;;;5114124;28;20027;-74
2023/10/29 04:20:54;;;;;;;16.35;10.32;;;6.60;99.90;;;;;;5145749;27;20445;-79
2023/10/29 04:23:19;;;;;;;17.58;12.02;;;6.60;99.90;;;;;;5114044;28;20373;-78
2023/10/29 04:25:45;;;;;;;21.60;11.25;;;6.70;99.90;;;;;;5112285;28;20039;-75
2023/10/29 04:28:10;;;;;;;25.10;12.23;;;6.70;99.90;;;;;;5113931;28;20091;-74
2023/10/29 04:30:36;;;;;;;18.70;11.70;;;6.70;99.90;;;;;;5145989;27;20052;-75
2023/10/29 04:33:03;;;;;;;17.20;10.52;;;6.60;99.90;;;;;;5112584;28;20577;-80
2023/10/29 04:35:29;;;;;;;19.95;11.57;;;6.60;99.90;;;;;;5113489;27;20125;-75
2023/10/29 04:37:55;;;;;;;17.00;10.60;;;6.60;99.90;;;;;;5112454;28;20397;-74
2023/10/29 04:40:21;;;;;;;22.92;10.52;;;6.50;99.90;;;;;;5113258;28;20008;-79
2023/10/29 04:42:46;;;;;;;20.48;11.50;;;6.40;99.90;;;;;;5113703;28;20350;-80
2023/10/29 04:45:12;;;;;;;17.60;11.38;;;6.40;99.90;;;;;;5113173;28;20039;-80
2023/10/29 04:47:38;;;;;;;20.35;11.27;;;6.40;99.90;;;;;;5112194;28;20016;-79
2023/10/29 04:50:05;;;;;;;14.25;8.65;;;6.30;99.90;;;;;;5112016;28;20016;-80
2023/10/29 04:52:31;;;;;;;14.52;8.10;;;6.20;99.90;;;;;;5113498;28;20087;-75
2023/10/29 04:54:56;;;;;;;9.70;7.15;;;6.20;99.90;;;;;;5099031;28;20054;-79
2023/10/29 04:57:22;;;;;;;11.23;6.25;;;6.10;99.90;;;;;;5113473;28;20094;-75
2023/10/29 04:59:48;;;;;;;11.50;6.30;;;6.10;99.90;;;;;;5113131;28;20077;-75
2023/10/29 05:02:15;;;;;;;10.65;7.10;;;6.00;99.90;;;;;;5113356;28;20099;-75
2023/10/29 05:04:41;;;;;;;12.13;6.95;;;6.00;99.90;;;;;;5112965;28;20610;-79
2023/10/29 05:07:08;;;;;;;12.45;7.20;;;6.00;99.90;;;;;;5113370;28;20121;-79
2023/10/29 05:09:34;;;;;;;14.75;7.10;;;5.90;99.90;;;;;;5111808;28;20039;-80
2023/10/29 05:12:00;;;;;;;13.68;7.28;;;5.90;99.90;;;;;;5112114;28;20019;-75
2023/10/29 05:14:26;;;;;;;8.93;6.80;;;5.90;99.90;;;;;;5112983;28;20027;-75
2023/10/29 05:16:52;;;;;;;12.70;6.97;;;5.90;99.90;;;;;;5111828;28;20027;-79
2023/10/29 05:19:18;;;;;;;10.32;6.32;;;5.90;99.90;;;;;;5108801;28;20022;-75
2023/10/29 05:21:44;;;;;;;9.05;6.22;;;5.80;99.90;;;;;;5106616;28;20024;-76
2023/10/29 05:24:10;;;;;;;10.13;6.22;;;5.80;99.90;;;;;;5112061;28;20114;-75
2023/10/29 05:26:39;;;;;;;9.65;6.10;;;5.80;99.90;;;;;;5105271;28;20145;-75
2023/10/29 05:29:04;;;;;;;9.00;6.25;;;5.80;99.90;;;;;;5111215;28;20019;-77
2023/10/29 05:31:33;;;;;;;11.38;6.10;;;5.80;99.90;;;;;;5110881;28;20058;-76
2023/10/29 05:34:00;;;;;;;9.65;6.05;;;5.80;99.90;;;;;;5116700;28;20040;-76
2023/10/29 05:36:27;;;;;;;7.97;6.70;;;5.80;99.90;;;;;;5110497;28;20118;-76
2023/10/29 05:38:53;;;;;;;8.23;6.18;;;5.80;99.90;;;;;;5114255;28;20028;-76
2023/10/29 05:41:19;;;;;;;9.55;6.22;;;5.80;99.90;;;;;;5115259;28;20419;-76
2023/10/29 05:43:44;;;;;;;7.15;6.10;;;5.70;99.90;;;;;;5114799;28;20030;-76
2023/10/29 05:46:14;;;;;;;11.80;6.07;;;5.70;99.90;;;;;;5114766;28;20039;-76
2023/10/29 05:48:40;;;;;;;8.40;6.07;;;5.70;99.90;;;;;;5115000;28;20023;-76
2023/10/29 05:51:06;;;;;;;9.02;5.78;;;5.60;99.90;;;;;;5116527;28;20028;-76
2023/10/29 05:53:34;;;;;;;8.75;5.53;;;5.60;99.90;;;;;;5114196;28;20057;-76
2023/10/29 05:56:00;;;;;;;10.80;6.22;;;5.60;99.90;;;;;;5116650;27;20023;-76
2023/10/29 05:58:26;;;;;;;10.48;6.55;;;5.60;99.90;;;;;;5114570;28;20072;-76
2023/10/29 06:00:52;;;;;;;12.35;6.50;;;5.60;99.90;;;;;;5115235;28;20024;-76
2023/10/29 06:03:18;;;;;;;9.55;6.53;;;5.50;99.90;;;;;;5114123;27;20038;-76
2023/10/29 06:05:44;;;;;;;10.68;6.32;;;5.50;99.90;;;;;;5115842;28;20032;-76
2023/10/29 06:08:10;;;;;;;12.32;5.50;;;5.50;99.90;;;;;;5103742;28;20388;-76
2023/10/29 06:10:36;;;;;;;11.65;6.82;;;5.50;99.90;;;;;;5114465;28;20019;-77
2023/10/29 06:13:04;;;;;;;7.15;4.72;;;5.50;99.90;;;;;;5113286;28;20019;-76
2023/10/29 06:15:30;;;;;;;6.28;4.78;;;5.50;99.90;;;;;;5115787;28;20019;-76
2023/10/29 06:17:55;;;;;;;9.90;5.00;;;5.50;99.90;;;;;;5112009;28;20092;-80
2023/10/29 06:20:22;;;;;;;6.95;5.10;;;5.50;99.90;;;;;;5103227;28;20024;-81
2023/10/29 06:22:48;;;;;;;9.55;6.07;;;5.60;99.90;;;;;;5101845;27;20046;-80
2023/10/29 06:25:15;;;;;;;8.95;6.18;;;5.60;99.90;;;;;;5115117;28;20083;-81
2023/10/29 06:27:41;;;;;;;9.50;6.40;;;5.70;99.90;;;;;;5131979;27;21113;-81
2023/10/29 06:30:07;;;;;;;19.25;11.00;;;5.80;99.90;;;;;;5108216;28;20176;-81
2023/10/29 06:32:33;;;;;;;19.88;13.35;;;5.90;99.90;;;;;;5106447;28;20145;-76
2023/10/29 06:34:58;;;;;;;29.95;19.23;;;6.00;99.90;;;;;;5109546;27;20114;-75
2023/10/29 06:37:24;;;;;;;26.63;17.92;;;6.10;99.90;;;;;;5114221;28;20024;-75
2023/10/29 06:39:49;;;;;;;16.70;11.10;;;6.20;99.90;;;;;;5112477;27;20445;-81
2023/10/29 06:42:15;;;;;;;13.20;8.30;;;6.40;99.90;;;;;;5111978;28;20469;-81
2023/10/29 06:44:41;;;;;;;12.77;6.25;;;6.50;99.90;;;;;;5109253;28;20081;-80
2023/10/29 06:47:07;;;;;;;9.38;6.25;;;6.70;99.90;;;;;;5097300;28;20107;-76
2023/10/29 06:49:33;;;;;;;7.47;5.78;;;6.80;99.90;;;;;;5113135;28;20023;-75
2023/10/29 06:51:59;;;;;;;8.32;6.05;;;7.00;99.90;;;;;;5104291;28;20027;-76
2023/10/29 06:54:24;;;;;;;12.25;7.60;;;7.10;99.90;;;;;;5109666;28;20031;-75
2023/10/29 06:56:50;;;;;;;11.82;8.57;;;7.30;99.90;;;;;;5108483;28;20062;-76
2023/10/29 06:59:16;;;;;;;15.07;9.77;;;7.50;99.90;;;;;;5112279;28;20150;-76
2023/10/29 07:01:42;;;;;;;14.18;9.43;;;7.60;99.90;;;;;;5112677;28;20484;-76
2023/10/29 07:04:08;;;;;;;22.55;12.40;;;7.70;99.90;;;;;;5111200;28;20034;-74
2023/10/29 07:06:34;;;;;;;16.15;11.93;;;7.90;99.90;;;;;;5108518;28;20106;-76
2023/10/29 07:09:00;;;;;;;21.35;13.50;;;7.90;99.90;;;;;;5112931;28;20065;-76
2023/10/29 07:11:29;;;;;;;20.77;15.18;;;8.10;99.90;;;;;;5109054;28;20047;-76
2023/10/29 07:13:54;;;;;;;20.23;12.65;;;8.30;99.90;;;;;;5114563;28;20065;-76
2023/10/29 07:16:20;;;;;;;12.75;8.55;;;8.40;99.90;;;;;;5112665;28;20020;-76
2023/10/29 07:18:46;;;;;;;9.70;7.35;;;8.50;99.90;;;;;;5115314;28;20027;-76
2023/10/29 07:21:12;;;;;;;13.23;9.15;;;8.70;99.90;;;;;;5112102;28;20023;-81
2023/10/29 07:23:37;;;;;;;12.05;8.43;;;8.90;99.90;;;;;;5108606;27;20035;-81
2023/10/29 07:26:03;;;;;;;7.90;6.10;;;9.00;99.90;;;;;;5113066;28;20036;-81
2023/10/29 07:28:29;;;;;;;7.43;5.30;;;9.20;99.90;;;;;;5110242;28;20031;-81
2023/10/29 07:30:57;;;;;;;7.80;6.18;;;9.40;99.90;;;;;;5106385;28;20058;-81
2023/10/29 07:33:23;;;;;;;8.60;4.88;;;9.60;99.90;;;;;;5108702;28;20019;-81
2023/10/29 07:35:49;;;;;;;7.18;4.45;;;9.90;99.90;;;;;;5111465;28;20566;-80
2023/10/29 07:38:14;;;;;;;7.38;4.32;;;10.00;99.90;;;;;;5113609;28;20038;-80
2023/10/29 07:40:40;;;;;;;5.40;4.32;;;10.10;99.90;;;;;;5113127;28;20034;-80
2023/10/29 07:43:06;;;;;;;6.47;4.13;;;10.30;99.90;;;;;;5115782;27;20019;-80
2023/10/29 07:45:32;;;;;;;6.13;3.60;;;10.40;99.90;;;;;;5113278;28;20032;-80
2023/10/29 07:47:58;;;;;;;5.20;3.67;;;10.60;99.90;;;;;;5112841;28;20051;-80
2023/10/29 07:50:24;;;;;;;4.93;3.55;;;10.80;99.90;;;;;;5110779;28;20055;-80
2023/10/29 07:52:49;;;;;;;5.28;3.28;;;10.90;99.90;;;;;;5096255;28;20047;-79
2023/10/29 07:55:15;;;;;;;8.27;3.40;;;11.00;99.90;;;;;;5112796;28;20051;-79
2023/10/29 07:57:41;;;;;;;6.10;2.83;;;11.20;99.90;;;;;;5107650;28;20020;-79
2023/10/29 08:00:13;;;;;;;5.25;2.90;;;11.40;99.90;;;;;;5110974;28;20016;-79
2023/10/29 08:02:39;;;;;;;5.33;2.27;;;11.50;99.90;;;;;;5106384;28;20054;-79
2023/10/29 08:05:05;;;;;;;5.85;3.53;;;11.50;99.90;;;;;;5109206;28;20493;-80
2023/10/29 08:07:31;;;;;;;6.43;3.05;;;11.60;99.90;;;;;;5102716;28;20098;-80
2023/10/29 08:09:56;;;;;;;3.97;2.67;;;11.60;99.90;;;;;;5111535;28;20016;-80
2023/10/29 08:12:23;;;;;;;4.10;2.63;;;11.60;99.90;;;;;;5104416;28;20032;-80
2023/10/29 08:14:48;;;;;;;3.65;2.35;;;11.60;99.90;;;;;;5119114;28;20024;-80
2023/10/29 08:17:17;;;;;;;4.57;2.70;;;11.70;99.90;;;;;;5110663;28;20573;-81
2023/10/29 08:19:43;;;;;;;3.17;2.45;;;11.90;99.90;;;;;;5105597;28;20493;-81
2023/10/29 08:22:09;;;;;;;4.40;2.40;;;12.10;99.90;;;;;;5118479;28;20023;-80
2023/10/29 08:24:35;;;;;;;3.53;2.30;;;12.20;99.90;;;;;;5096580;28;20443;-81
2023/10/29 08:27:01;;;;;;;9.07;2.38;;;12.30;99.90;;;;;;5095392;28;20031;-81
2023/10/29 08:29:27;;;;;;;3.42;2.40;;;12.40;99.90;;;;;;5113219;28;20384;-81
2023/10/29 08:31:52;;;;;;;2.78;1.70;;;12.60;99.90;;;;;;5111950;28;20560;-81
2023/10/29 08:34:18;;;;;;;5.03;2.25;;;12.70;99.90;;;;;;5112943;28;20094;-82
2023/10/29 08:36:44;;;;;;;3.53;2.38;;;12.80;99.90;;;;;;5109486;28;20511;-80
2023/10/29 08:39:09;;;;;;;4.63;2.42;;;12.90;99.90;;;;;;5112013;28;20069;-81
2023/10/29 08:41:35;;;;;;;5.68;2.80;;;13.00;99.90;;;;;;5113229;28;20030;-81
2023/10/29 08:44:01;;;;;;;2.55;2.25;;;13.10;99.90;;;;;;5111109;28;20024;-77
2023/10/29 08:46:26;;;;;;;3.28;1.88;;;13.20;99.90;;;;;;5102290;28;20374;-77
2023/10/29 08:48:52;;;;;;;2.80;2.17;;;13.20;99.90;;;;;;5094061;28;20054;-83
2023/10/29 08:51:18;;;;;;;2.33;1.75;;;13.30;99.90;;;;;;5113238;28;20098;-77
2023/10/29 08:53:43;;;;;;;4.40;1.90;;;13.40;99.90;;;;;;5105375;28;20035;-77
2023/10/29 08:56:09;;;;;;;8.60;2.22;;;13.50;99.90;;;;;;5112995;28;20019;-77
2023/10/29 08:58:35;;;;;;;3.63;3.17;;;13.50;99.90;;;;;;5111726;28;20043;-78
2023/10/29 09:01:05;;;;;;;4.45;1.85;;;13.60;99.90;;;;;;5111717;28;20035;-78
2023/10/29 09:03:30;;;;;;;5.88;3.55;;;13.70;99.90;;;;;;5111158;28;20035;-78
2023/10/29 09:06:03;;;;;;;5.90;2.35;;;13.80;99.90;;;;;;5112055;28;20039;-77
2023/10/29 09:08:31;;;;;;;7.13;2.22;;;13.90;99.90;;;;;;5106183;28;20069;-77
2023/10/29 09:10:57;;;;;;;5.35;2.53;;;14.00;99.90;;;;;;5108227;28;20019;-77
2023/10/29 09:13:23;;;;;;;8.23;2.80;;;14.10;99.90;;;;;;5112952;28;20020;-77
2023/10/29 09:15:49;;;;;;;4.57;1.98;;;14.20;99.90;;;;;;5111558;28;20019;-78
2023/10/29 09:18:16;;;;;;;4.05;2.63;;;14.30;99.90;;;;;;5108935;28;20494;-78
2023/10/29 09:20:46;;;;;;;4.60;2.28;;;14.30;99.90;;;;;;5109720;28;20069;-78
2023/10/29 09:23:15;;;;;;;4.72;2.20;;;14.40;99.90;;;;;;5111609;28;20022;-77
2023/10/29 09:25:45;;;;;;;5.63;2.63;;;14.50;99.90;;;;;;5111357;28;20027;-77
2023/10/29 09:28:11;;;;;;;5.10;2.33;;;14.50;99.60;;;;;;5106781;28;20389;-82
2023/10/29 09:30:41;;;;;;;5.20;1.95;;;14.60;99.90;;;;;;5109640;28;20069;-83
2023/10/29 09:33:08;;;;;;;5.28;1.92;;;14.70;99.90;;;;;;5111171;28;20427;-77
2023/10/29 09:35:35;;;;;;;3.67;1.60;;;14.70;94.60;;;;;;5105084;28;20035;-82
2023/10/29 09:38:00;;;;;;;2.60;1.92;;;14.80;92.80;;;;;;5106078;28;20020;-77
2023/10/29 09:40:26;;;;;;;2.30;1.52;;;14.90;96.70;;;;;;5107167;28;20377;-77
2023/10/29 09:42:53;;;;;;;3.42;1.75;;;14.90;94.30;;;;;;5096457;28;20412;-77
2023/10/29 09:45:23;;;;;;;5.25;2.35;;;15.00;94.30;;;;;;5108366;28;20106;-77
2023/10/29 09:47:50;;;;;;;2.58;1.20;;;15.20;94.20;;;;;;5102324;28;20019;-83
2023/10/29 09:50:15;;;;;;;3.03;1.40;;;15.20;89.40;;;;;;5112345;28;20054;-83
2023/10/29 09:52:41;;;;;;;4.00;1.20;;;15.20;88.30;;;;;;5112392;28;20108;-83
2023/10/29 09:55:09;;;;;;;3.75;1.30;;;15.30;87.20;;;;;;5107160;28;20487;-83
2023/10/29 09:57:34;;;;;;;2.75;1.85;;;15.40;87.80;;;;;;5110550;28;20020;-83
2023/10/29 10:00:00;;;;;;;4.03;1.60;;;15.40;86.40;;;;;;5109226;28;20491;-83
2023/10/29 10:02:26;;;;;;;2.08;1.20;;;15.50;84.00;;;;;;5110570;28;20026;-83
2023/10/29 10:04:52;;;;;;;3.90;1.20;;;15.50;83.30;;;;;;5110750;28;20446;-83
2023/10/29 10:07:19;;;;;;;2.90;1.52;;;15.50;83.10;;;;;;5111866;28;20020;-83
2023/10/29 10:09:52;;;;;;;1.60;1.50;;;15.60;86.10;;;;;;5110968;28;20028;-84
2023/10/29 10:12:18;;;;;;;3.47;1.38;;;15.70;82.10;;;;;;5112234;28;20524;-83
2023/10/29 10:14:44;;;;;;;3.45;1.50;;;15.70;79.60;;;;;;5109134;28;20115;-83
2023/10/29 10:17:10;;;;;;;2.30;1.42;;;15.70;78.90;;;;;;5099979;28;20019;-84
2023/10/29 10:19:37;;;;;;;3.88;1.73;;;15.80;79.90;;;;;;5114994;28;20019;-79
2023/10/29 10:22:05;;;;;;;2.63;1.77;;;15.80;79.10;;;;;;5113994;28;20147;-86
2023/10/29 10:24:38;;;;;;;3.28;1.92;;;15.80;80.80;;;;;;5115919;28;20089;-78
2023/10/29 10:27:05;;;;;;;4.78;2.05;;;15.80;80.40;;;;;;5115418;28;20476;-78
2023/10/29 10:29:31;;;;;;;8.77;2.08;;;15.90;82.00;;;;;;5111249;28;20020;-84
2023/10/29 10:32:02;;;;;;;3.40;1.80;;;15.90;82.20;;;;;;5113408;28;20035;-84
2023/10/29 10:34:37;;;;;;;3.83;1.70;;;16.00;82.20;;;;;;5113876;28;20019;-83
2023/10/29 10:37:04;;;;;;;6.93;1.85;;;16.00;81.00;;;;;;5130002;27;20051;-84
2023/10/29 10:39:31;;;;;;;5.00;1.60;;;16.10;81.90;;;;;;5109529;28;20077;-83
2023/10/29 10:42:00;;;;;;;8.35;3.65;;;16.10;79.90;;;;;;5115270;28;20075;-84
2023/10/29 10:44:28;;;;;;;5.18;2.92;;;16.20;76.80;;;;;;5109427;28;20043;-84
2023/10/29 10:46:56;;;;;;;121.75;54.08;;;16.20;75.00;;;;;;5112232;28;20076;-84
2023/10/29 10:49:22;;;;;;;130.90;60.83;;;16.30;75.60;;;;;;5105531;28;20064;-84
2023/10/29 10:51:54;;;;;;;15.27;6.30;;;16.30;75.00;;;;;;5111595;28;20384;-84
2023/10/29 10:54:21;;;;;;;4.55;2.78;;;16.40;75.80;;;;;;5111725;28;20481;-83
2023/10/29 10:56:48;;;;;;;11.13;3.28;;;16.40;78.80;;;;;;5114769;28;20053;-77
2023/10/29 10:59:14;;;;;;;10.45;3.70;;;16.50;78.20;;;;;;5113900;28;20096;-85
2023/10/29 11:01:40;;;;;;;2.58;1.48;;;16.60;78.80;;;;;;5113913;28;20016;-77
2023/10/29 11:04:08;;;;;;;3.03;2.08;;;16.60;76.20;;;;;;5115348;28;20038;-83
2023/10/29 11:06:36;;;;;;;7.38;3.30;;;16.60;75.00;;;;;;5114016;28;20023;-83
2023/10/29 11:09:05;;;;;;;5.22;2.30;;;16.70;75.30;;;;;;5115676;28;20019;-84
2023/10/29 11:11:35;;;;;;;8.13;3.33;;;16.70;74.10;;;;;;5117016;28;20036;-84
2023/10/29 11:14:12;;;;;;;7.47;2.60;;;16.80;74.20;;;;;;5102446;28;20465;-85
2023/10/29 11:16:55;;;;;;;3.42;1.70;;;16.80;71.20;;;;;;5106630;28;20020;-85
2023/10/29 11:19:34;;;;;;;4.47;2.50;;;16.90;71.90;;;;;;5092956;28;20027;-84
2023/10/29 11:22:22;;;;;;;4.68;1.98;;;17.00;72.60;;;;;;5111300;28;20047;-77
2023/10/29 11:25:08;;;;;;;4.30;2.15;;;17.10;72.30;;;;;;5111251;28;20088;-77
2023/10/29 11:27:38;;;;;;;9.18;2.03;;;17.10;71.20;;;;;;5113042;28;20031;-77
2023/10/29 11:30:17;;;;;;;3.25;1.48;;;17.10;71.70;;;;;;5109040;28;20032;-78
2023/10/29 11:32:44;;;;;;;2.83;1.35;;;17.20;70.80;;;;;;5106744;28;20380;-83
2023/10/29 11:35:21;;;;;;;6.57;2.90;;;17.20;72.30;;;;;;5113699;28;20446;-77
2023/10/29 11:37:48;;;;;;;4.25;1.73;;;17.20;71.40;;;;;;5109787;28;20098;-84
2023/10/29 11:40:34;;;;;;;4.05;1.88;;;17.30;70.80;;;;;;5110339;28;20118;-83
2023/10/29 11:43:18;;;;;;;3.55;1.73;;;17.20;70.40;;;;;;5111286;28;20077;-83
2023/10/29 11:46:01;;;;;;;2.78;1.80;;;17.20;72.80;;;;;;5110755;28;20059;-83
2023/10/29 11:48:31;;;;;;;4.70;2.05;;;17.20;72.80;;;;;;5109114;28;20023;-83
2023/10/29 11:51:08;;;;;;;3.50;1.90;;;17.10;73.00;;;;;;5110227;28;20035;-83
2023/10/29 11:53:38;;;;;;;3.67;1.30;;;17.10;72.90;;;;;;5109405;28;20039;-84
2023/10/29 11:56:05;;;;;;;1.73;1.50;;;17.10;72.90;;;;;;5102180;28;20036;-84
2023/10/29 11:58:31;;;;;;;2.42;1.80;;;17.00;72.50;;;;;;5110617;28;20579;-84
2023/10/29 12:00:59;;;;;;;3.05;1.85;;;16.90;72.70;;;;;;5112036;28;20170;-83
2023/10/29 12:03:25;;;;;;;3.03;1.63;;;16.90;74.50;;;;;;5111881;28;20088;-83
2023/10/29 12:05:55;;;;;;;3.47;2.25;;;16.90;76.50;;;;;;5112704;28;20093;-84
2023/10/29 12:08:30;;;;;;;9.73;2.67;;;17.00;75.00;;;;;;5113748;28;20060;-83
2023/10/29 12:10:56;;;;;;;4.75;1.92;;;17.10;76.50;;;;;;5114308;28;20023;-83
2023/10/29 12:13:22;;;;;;;8.98;2.13;;;17.10;74.50;;;;;;5112683;28;20031;-77
2023/10/29 12:15:58;;;;;;;2.03;1.27;;;17.20;72.70;;;;;;5112497;28;20027;-77
2023/10/29 12:18:25;;;;;;;4.50;2.03;;;17.30;70.30;;;;;;5112841;28;20012;-77
2023/10/29 12:21:02;;;;;;;3.78;1.02;;;17.40;70.60;;;;;;5103520;28;20395;-77
2023/10/29 12:23:28;;;;;;;1.77;1.30;;;17.50;70.00;;;;;;5113762;28;20381;-77
2023/10/29 12:25:55;;;;;;;3.17;1.30;;;17.50;69.50;;;;;;5112162;28;20032;-84
2023/10/29 12:28:20;;;;;;;3.42;1.40;;;17.60;69.10;;;;;;5114225;28;20099;-84
2023/10/29 12:30:47;;;;;;;2.63;1.83;;;17.60;68.20;;;;;;5113372;28;20071;-84
2023/10/29 12:33:25;;;;;;;3.33;1.55;;;17.70;68.10;;;;;;5103771;28;20051;-85
2023/10/29 12:35:58;;;;;;;4.90;2.25;;;17.70;70.20;;;;;;5110608;28;20047;-83
2023/10/29 12:38:25;;;;;;;1.70;1.50;;;17.70;70.20;;;;;;5113633;28;20069;-77
2023/10/29 12:41:06;;;;;;;7.15;1.70;;;17.60;70.10;;;;;;5104130;28;20536;-83
2023/10/29 12:43:35;;;;;;;5.15;3.33;;;17.60;69.80;;;;;;5112021;28;20065;-83